Nearby METAR Reports


KSYR - Syracuse, New York, USA
Distance from station: SE 5mi, 8km
Updated: Fri, 19-Jul-2019 1:54am EDT
Mostly cloudy
Mostly cloudy
 Wind from E
Wind: E 3 mph , 6 km/h
Temperature: 72°F , 22°C
Dew Point: 70°F , 21°C
Humidity: 94%
Barometer: 29.86 inHg , 1011.2 hPa
Clouds: Mostly cloudy
Visibility: 10 miles , 16 km
Cloud details: Few Clouds 20000 ft
Mostly cloudy 25000 ft
2019/07/19 05:54 KSYR 190554Z 09003KT 10SM FEW200 BKN250 22/21 A2986 RMK AO2 SLP103 T02220206 10278 20222 58005
KFZY - Fulton, New York, USA
Distance from station: NW 17mi, 27km
Updated: Fri, 19-Jul-2019 1:54am EDT
Mist, Clear
Mist, Clear
 Wind from calm
Wind: Calm
Temperature: 72°F , 22°C
Dew Point: 66°F , 19°C
Humidity: 83%
Barometer: 29.85 inHg , 1010.8 hPa
Summary: Mist
Clouds: Clear
Visibility: 6 miles , 10 km
2019/07/19 05:54 KFZY 190554Z AUTO 00000KT 6SM BR CLR 22/19 A2985 RMK AO2 SLP105 T02170194 10267 20194 56006
 
KRME - Rome/Griffiss Af, New York, USA
Distance from station: E 39mi, 62km
Updated: Fri, 19-Jul-2019 1:53am EDT
Clear
Clear
 Wind from SE
Wind: SE 3 mph , 6 km/h
Temperature: 70°F , 21°C
Dew Point: 68°F , 20°C
Humidity: 94%
Barometer: 29.88 inHg , 1011.9 hPa
Clouds: Clear
Visibility: 10 miles , 16 km
2019/07/19 05:53 KRME 190553Z AUTO 14003KT 10SM CLR 21/20 A2988 RMK AO2 SLP112 T02060200 10267 20206 58003
KITH - Ithaca/Tompkins, New York, USA
Distance from station: SSW 51mi, 82km
Updated: Fri, 19-Jul-2019 1:56am EDT
Clear
Clear
 Wind from SE
Wind: SE 3 mph , 6 km/h
Temperature: 68°F , 20°C
Dew Point: 68°F , 20°C
Humidity: 100%
Barometer: 29.91 inHg , 1012.9 hPa
Clouds: Clear
Visibility: 10 miles , 16 km
2019/07/19 05:56 KITH 190556Z AUTO 14003KT 10SM CLR 20/20 A2991 RMK AO2 SLP119 T02000200 10261 20194 58002
 
KART - Watertown, New York, USA
Distance from station: N 56mi, 91km
Updated: Fri, 19-Jul-2019 1:56am EDT
Clear
Clear
 Wind from calm
Wind: Calm
Temperature: 72°F , 22°C
Dew Point: 70°F , 21°C
Humidity: 94%
Barometer: 29.82 inHg , 1009.8 hPa
Clouds: Clear
Visibility: 10 miles , 16 km
2019/07/19 05:56 KART 190556Z AUTO 00000KT 10SM CLR 22/21 A2982 RMK AO2 SLP092 T02220206 10256 20206 56010
KPEO - Penn Yan, New York, USA
Distance from station: SW 58mi, 93km
Updated: Fri, 19-Jul-2019 1:53am EDT
Clear
Clear
 Wind from SSW
Wind: SSW 8 mph , 13 km/h
Temperature: 73°F , 23°C
Dew Point: 70°F , 21°C
Humidity: 89%
Barometer: 29.90 inHg , 1012.5 hPa
Clouds: Clear
Visibility: 10 miles , 16 km
2019/07/19 05:53 KPEO 190553Z AUTO 21007KT 10SM CLR 23/21 A2990 RMK AO2 SLP115 T02280206 10272 20222 56004
 
KGTB - Fort Drum/Wheele, New York, USA
Distance from station: NNE 64mi, 102km
Updated: Fri, 19-Jul-2019 1:56am EDT
Clear
Clear
 Wind from SSE
Wind: SSE 7 mph , 11 km/h
Temperature: 72°F , 22°C
Dew Point: 68°F , 20°C
Humidity: 88%
Barometer: 29.84 inHg , 1010.5 hPa
Clouds: Clear
Visibility: 10 miles , 16 km
2019/07/19 05:56 KGTB 190556Z AUTO 15006KT 10SM CLR 22/20 A2984 RMK AO2 SLP101 T02160202 10263 20215 56006
CWQP - Point Petre (mar, Ontario, Canada
Distance from station: NW 67mi, 107km
Updated: Fri, 19-Jul-2019 1:00am EDT

 Wind from S
Wind: S 10 mph , 17 km/h
Temperature: 68°F , 20°C
Dew Point: 66°F , 19°C
Humidity: 94%
2019/07/19 05:00 CWQP 190500Z AUTO 19009KT 20/19 RMK AO1 SLP101 T01960192 56009
 
KBGM - Binghamton, New York, USA
Distance from station: S 67mi, 107km
Updated: Fri, 19-Jul-2019 1:53am EDT
Clear
Clear
 Wind from S
Wind: S 5 mph , 7 km/h
Temperature: 70°F , 21°C
Dew Point: 68°F , 20°C
Humidity: 94%
Barometer: 29.93 inHg , 1013.5 hPa
Clouds: Clear
Visibility: 9 miles , 14 km
2019/07/19 05:53 KBGM 190553Z AUTO 19004KT 9SM CLR 21/20 A2993 RMK AO2 SLP125 T02060200 10256 20206 58001
CYGK - Kingston Arpt (m, Ontario, Canada
Distance from station: NNW 75mi, 121km
Updated: Thu, 18-Jul-2019 11:00pm EDT
NOT Current
Partly cloudy
Partly cloudy
 Wind from SSW
Wind: SSW 7 mph , 11 km/h
Temperature: 72°F , 22°C
Dew Point: 72°F , 22°C
Humidity: 100%
Barometer: 29.83 inHg , 1010.2 hPa
Clouds: Partly cloudy
Visibility: 15 miles , 24 km
Cloud details: Few Clouds 1200 ft
Partly cloudy 23000 ft
2019/07/19 03:00 CYGK 190300Z 20006KT 15SM FEW012 SCT230 22/22 A2983 RMK CF1CI2 LAST STFD OBS/NXT 191000Z SLP104 DENSITY ALT 1300FT